Peach Bottom, Pennsylvania
Current Conditions -  °F | °C
As of 8:56 AM on Wednesday 26 Nov 2014 (Local Time) from KAPG Reporting Station
Light Rain Light Rain  
Wind Chill: 34°   Ceiling: 600
Heat Index: 41°   Visibility: 2mi
Dew Point: 41°   Wind: 12mph
Humidity: 100%   Direction: 40°NE
Pressure: 30.1"   Gusts: NA
Location:  39.75°N, 76.23°W
Report Text: KAPG 261356Z 04010KT 2SM -RA BR BKN006 OVC012 05/05 A3010
Loading
Personal Weather Stations






























Interactive Weather Map New forecast layout! Learn more

10-Day Weather Forecast

Advertisements
Track Severe Weather on mobile